createdAt,value
2022-07-29T00:02:29.466Z,97481.25
2022-07-29T00:04:57.079Z,97488.19
2022-07-29T00:07:24.582Z,97473.94
2022-07-29T00:09:52.742Z,97478.59
2022-07-29T00:12:26.697Z,97484.53
2022-07-29T00:14:57.906Z,97476.78
2022-07-29T00:17:27.395Z,97468.03
2022-07-29T00:19:56.158Z,97465.56
2022-07-29T00:22:23.255Z,97474.13
2022-07-29T00:24:50.707Z,97471.28
2022-07-29T00:27:18.915Z,97467.81
2022-07-29T00:29:46.206Z,97468.84
2022-07-29T00:32:13.347Z,97476.78
2022-07-29T00:34:59.318Z,97472.69
2022-07-29T00:37:26.108Z,97466.56
2022-07-29T00:39:52.957Z,97466.78
2022-07-29T00:42:19.799Z,97460.22
2022-07-29T00:44:46.659Z,97455.28
2022-07-29T00:47:14.211Z,97457.31
2022-07-29T00:49:43.125Z,97442.84
2022-07-29T00:52:11.922Z,97437.91
2022-07-29T00:54:44.268Z,97438.25
2022-07-29T00:57:13.577Z,97442.13
2022-07-29T00:59:40.514Z,97434.38
2022-07-29T01:02:07.732Z,97439.66
2022-07-29T01:04:34.802Z,97430.91
2022-07-29T01:07:05.512Z,97441.28
2022-07-29T01:09:45.338Z,97436.81
2022-07-29T01:12:22.387Z,97438.47
2022-07-29T01:14:51.414Z,97437.63
2022-07-29T01:17:29.640Z,97446.59
2022-07-29T01:20:15.896Z,97447.59
2022-07-29T01:23:26.433Z,97450.63
2022-07-29T01:26:49.109Z,97437.78
2022-07-29T01:29:38.504Z,97458.31
2022-07-29T01:32:20.287Z,97461.13
2022-07-29T01:35:18.163Z,97460.31
2022-07-29T01:38:14.357Z,97457.50
2022-07-29T01:40:51.673Z,97457.84
2022-07-29T01:43:32.184Z,97462.09
2022-07-29T01:46:05.513Z,97456.50
2022-07-29T01:48:48.134Z,97456.28
2022-07-29T01:51:51.348Z,97446.63
2022-07-29T01:54:43.760Z,97443.91
2022-07-29T01:57:20.659Z,97439.56
2022-07-29T01:59:50.679Z,97444.78
2022-07-29T02:02:19.338Z,97435.59
2022-07-29T02:04:50.762Z,97436.94
2022-07-29T02:07:22.037Z,97436.69
2022-07-29T02:09:51.746Z,97438.88
2022-07-29T02:12:21.111Z,97440.22
2022-07-29T02:14:55.366Z,97434.31
2022-07-29T02:17:33.628Z,97440.53
2022-07-29T02:20:05.255Z,97440.25
2022-07-29T02:22:38.148Z,97439.16
2022-07-29T02:25:14.219Z,97451.91
2022-07-29T02:27:43.393Z,97440.44
2022-07-29T02:30:13.263Z,97447.25
2022-07-29T02:32:43.027Z,97448.81
2022-07-29T02:35:13.576Z,97437.81
2022-07-29T02:37:43.178Z,97426.78
2022-07-29T02:40:14.092Z,97427.78
2022-07-29T02:42:45.162Z,97427.97
2022-07-29T02:45:12.263Z,97432.44
2022-07-29T02:47:49.403Z,97428.78
2022-07-29T02:50:30.692Z,97426.13
2022-07-29T02:53:18.729Z,97435.69
2022-07-29T02:55:57.123Z,97433.72
2022-07-29T02:58:35.197Z,97433.34
2022-07-29T03:01:19.426Z,97439.25
2022-07-29T03:03:51.740Z,97434.81
2022-07-29T03:06:37.381Z,97439.25
2022-07-29T03:09:12.828Z,97434.53
2022-07-29T03:11:49.828Z,97437.69
2022-07-29T03:14:21.860Z,97436.63
2022-07-29T03:16:51.135Z,97436.31
2022-07-29T03:19:19.369Z,97436.50
2022-07-29T03:21:46.163Z,97436.88
2022-07-29T03:24:27.022Z,97427.56
2022-07-29T03:26:55.166Z,97426.66
2022-07-29T03:29:21.952Z,97434.09
2022-07-29T03:31:51.750Z,97429.81
2022-07-29T03:34:19.010Z,97430.00
2022-07-29T03:36:46.101Z,97440.72
2022-07-29T03:39:18.979Z,97431.34
2022-07-29T03:41:49.175Z,97438.63
2022-07-29T03:44:19.007Z,97444.72
2022-07-29T03:46:48.209Z,97456.47
2022-07-29T03:49:17.899Z,97450.69
2022-07-29T03:51:45.241Z,97455.16
2022-07-29T03:54:12.335Z,97455.78
2022-07-29T03:56:47.307Z,97451.53
2022-07-29T03:59:17.550Z,97446.44
2022-07-29T04:01:45.975Z,97452.25
2022-07-29T04:04:13.740Z,97460.34
2022-07-29T04:06:43.094Z,97455.44
2022-07-29T04:09:11.009Z,97452.78
2022-07-29T04:12:02.407Z,97450.78
2022-07-29T04:14:27.607Z,97448.16
2022-07-29T04:16:54.360Z,97447.53
2022-07-29T04:19:21.166Z,97449.84
2022-07-29T04:21:47.980Z,97444.13
2022-07-29T04:24:15.314Z,97447.56
2022-07-29T04:26:42.390Z,97454.47
2022-07-29T04:29:09.506Z,97459.94
2022-07-29T04:31:36.384Z,97460.13
2022-07-29T04:34:03.235Z,97459.47
2022-07-29T04:36:30.298Z,97463.94
2022-07-29T04:38:57.244Z,97469.72
2022-07-29T04:41:32.701Z,97485.91
2022-07-29T04:44:01.873Z,97483.31
2022-07-29T04:46:29.206Z,97485.38
2022-07-29T04:48:56.291Z,97484.78
2022-07-29T04:51:23.565Z,97487.06
2022-07-29T04:53:50.396Z,97486.50
2022-07-29T04:56:17.258Z,97482.75
2022-07-29T04:58:44.122Z,97495.72
2022-07-29T05:01:11.081Z,97494.56
2022-07-29T05:03:37.912Z,97488.13
2022-07-29T05:06:04.683Z,97501.13
2022-07-29T05:08:31.486Z,97489.13
2022-07-29T05:10:58.294Z,97501.47
2022-07-29T05:13:45.187Z,97495.19
2022-07-29T05:16:12.461Z,97499.00
2022-07-29T05:18:39.379Z,97505.47
2022-07-29T05:21:06.230Z,97501.00
2022-07-29T05:23:33.049Z,97505.56
2022-07-29T05:25:59.848Z,97501.72
2022-07-29T05:28:26.638Z,97505.13
2022-07-29T05:30:53.475Z,97501.22
2022-07-29T05:33:35.633Z,97501.81
2022-07-29T05:36:07.492Z,97499.41
2022-07-29T05:38:36.308Z,97504.25
2022-07-29T05:41:03.358Z,97505.50
2022-07-29T05:43:30.814Z,97501.16
2022-07-29T05:45:57.944Z,97493.78
2022-07-29T05:48:25.339Z,97495.97
2022-07-29T05:50:52.279Z,97504.91
2022-07-29T05:53:20.543Z,97512.19
2022-07-29T05:55:49.379Z,97513.19
2022-07-29T05:58:16.312Z,97510.13
2022-07-29T06:00:43.122Z,97509.66
2022-07-29T06:03:10.132Z,97503.50
2022-07-29T06:05:36.957Z,97501.84
2022-07-29T06:08:06.576Z,97500.53
2022-07-29T06:10:33.846Z,97507.16
2022-07-29T06:13:00.589Z,97502.41
2022-07-29T06:15:27.587Z,97499.28
2022-07-29T06:18:00.825Z,97506.34
2022-07-29T06:20:33.165Z,97506.06
2022-07-29T06:23:01.118Z,97507.81
2022-07-29T06:25:31.809Z,97497.94
2022-07-29T06:27:58.795Z,97504.63
2022-07-29T06:30:25.844Z,97505.72
2022-07-29T06:32:52.677Z,97505.19
2022-07-29T06:35:41.162Z,97510.34
2022-07-29T06:38:25.092Z,97500.22
2022-07-29T06:41:03.043Z,97499.66
2022-07-29T06:43:50.152Z,97495.69
2022-07-29T06:46:20.523Z,97494.50
2022-07-29T06:48:48.605Z,97499.16
2022-07-29T06:51:15.842Z,97493.47
2022-07-29T06:54:00.330Z,97498.00
2022-07-29T06:56:39.492Z,97502.56
2022-07-29T06:59:08.700Z,97498.50
2022-07-29T07:01:38.014Z,97502.25
2022-07-29T07:04:05.303Z,97505.53
2022-07-29T07:06:32.220Z,97514.53
2022-07-29T07:08:59.111Z,97513.31
2022-07-29T07:11:25.877Z,97496.56
2022-07-29T07:13:52.638Z,97495.75
2022-07-29T07:16:19.592Z,97495.72
2022-07-29T07:18:46.534Z,97497.94
2022-07-29T07:21:19.144Z,97503.44
2022-07-29T07:23:47.167Z,97504.03
2022-07-29T07:26:13.992Z,97500.19
2022-07-29T07:28:40.985Z,97501.81
2022-07-29T07:31:07.927Z,97497.09
2022-07-29T07:33:34.752Z,97493.19
2022-07-29T07:36:01.574Z,97492.34
2022-07-29T07:38:28.370Z,97493.75
2022-07-29T07:40:55.214Z,97497.75
2022-07-29T07:43:22.740Z,97486.16
2022-07-29T07:45:49.569Z,97492.13
2022-07-29T07:48:16.410Z,97488.66
2022-07-29T07:50:44.566Z,97499.47
2022-07-29T07:53:11.722Z,97489.16
2022-07-29T07:58:30.097Z,97501.34
2022-07-29T08:00:56.980Z,97485.50
2022-07-29T08:03:23.835Z,97496.25
2022-07-29T08:05:52.634Z,97490.88
2022-07-29T08:08:19.594Z,97489.94
2022-07-29T08:11:00.563Z,97485.44
2022-07-29T08:13:31.593Z,97487.41
2022-07-29T08:16:01.239Z,97476.94
2022-07-29T08:18:32.105Z,97479.22
2022-07-29T08:20:59.806Z,97484.88
2022-07-29T08:23:32.835Z,97472.28
2022-07-29T08:26:14.517Z,97472.72
2022-07-29T08:28:47.695Z,97472.91
2022-07-29T08:31:15.301Z,97469.78
2022-07-29T08:33:43.255Z,97471.19
2022-07-29T08:36:10.543Z,97464.19
2022-07-29T08:38:37.392Z,97471.63
2022-07-29T08:41:04.390Z,97466.56
2022-07-29T08:43:31.357Z,97466.53
2022-07-29T08:45:58.216Z,97472.16
2022-07-29T08:48:25.716Z,97461.81
2022-07-29T08:50:57.075Z,97461.75
2022-07-29T08:53:27.909Z,97463.31
2022-07-29T08:55:56.143Z,97458.06
2022-07-29T08:58:25.454Z,97471.88
2022-07-29T09:00:57.144Z,97460.81
2022-07-29T09:03:31.180Z,97459.28
2022-07-29T09:06:03.567Z,97449.56
2022-07-29T09:08:33.281Z,97444.31
2022-07-29T09:11:03.833Z,97444.78
2022-07-29T09:13:31.050Z,97451.59
2022-07-29T09:15:57.955Z,97449.63
2022-07-29T09:18:46.306Z,97447.38
2022-07-29T09:21:35.693Z,97439.53
2022-07-29T09:24:15.361Z,97442.16
2022-07-29T09:26:47.242Z,97446.22
2022-07-29T09:29:24.293Z,97441.00
2022-07-29T09:31:54.679Z,97433.84
2022-07-29T09:34:26.533Z,97432.47
2022-07-29T09:36:56.354Z,97438.31
2022-07-29T09:39:46.514Z,97427.59
2022-07-29T09:42:14.236Z,97425.97
2022-07-29T09:44:49.714Z,97432.22
2022-07-29T09:47:19.337Z,97420.00
2022-07-29T09:50:01.382Z,97433.25
2022-07-29T09:52:30.639Z,97428.66
2022-07-29T09:55:18.242Z,97429.22
2022-07-29T09:57:48.201Z,97442.00
2022-07-29T10:00:19.607Z,97428.03
2022-07-29T10:02:47.935Z,97428.25
2022-07-29T10:05:24.982Z,97430.00
2022-07-29T10:07:57.970Z,97434.47
2022-07-29T10:10:36.546Z,97434.41
2022-07-29T10:13:13.519Z,97425.91
2022-07-29T10:15:46.658Z,97426.13
2022-07-29T10:18:18.053Z,97425.97
2022-07-29T10:20:45.138Z,97432.63
2022-07-29T10:23:12.000Z,97434.59
2022-07-29T10:25:38.787Z,97420.41
2022-07-29T10:28:06.766Z,97424.94
2022-07-29T10:30:34.051Z,97417.91
2022-07-29T10:33:41.674Z,97419.84
2022-07-29T10:36:49.182Z,97415.66
2022-07-29T10:39:53.570Z,97414.13
2022-07-29T10:42:29.426Z,97399.28
2022-07-29T10:45:00.157Z,97402.41
2022-07-29T10:47:27.990Z,97399.28
2022-07-29T10:50:05.211Z,97393.41
2022-07-29T10:52:50.534Z,97394.59
2022-07-29T10:55:45.320Z,97399.72
2022-07-29T10:58:21.603Z,97388.19
2022-07-29T11:01:10.139Z,97391.47
2022-07-29T11:03:52.451Z,97386.88
2022-07-29T11:06:26.263Z,97381.13
2022-07-29T11:09:34.896Z,97380.69
2022-07-29T11:12:25.411Z,97378.72
2022-07-29T11:14:53.402Z,97374.59
2022-07-29T11:17:20.451Z,97368.13
2022-07-29T11:19:51.949Z,97379.97
2022-07-29T11:22:36.634Z,97375.50
2022-07-29T11:25:42.570Z,97380.13
2022-07-29T11:31:11.785Z,97378.53
2022-07-29T11:36:27.987Z,97377.38
2022-07-29T11:42:32.068Z,97378.13
2022-07-29T11:45:42.976Z,97369.72
2022-07-29T11:48:28.069Z,97373.91
2022-07-29T11:50:58.313Z,97365.44
2022-07-29T11:53:25.672Z,97361.81
2022-07-29T11:55:58.135Z,97367.44
2022-07-29T11:58:25.998Z,97364.97
2022-07-29T12:00:55.581Z,97360.34
2022-07-29T12:03:35.546Z,97359.13
2022-07-29T12:06:14.925Z,97352.66
2022-07-29T12:07:03.750Z,97369.84
2022-07-29T12:08:44.288Z,97349.78
2022-07-29T12:11:22.615Z,97345.41
2022-07-29T12:13:52.602Z,97338.47
2022-07-29T12:16:25.423Z,97340.22
2022-07-29T12:19:02.173Z,97328.78
2022-07-29T12:21:45.688Z,97326.75
2022-07-29T12:24:17.027Z,97333.13
2022-07-29T12:27:01.056Z,97338.31
2022-07-29T12:29:33.640Z,97322.97
2022-07-29T12:32:01.623Z,97320.13
2022-07-29T12:34:30.445Z,97312.47
2022-07-29T12:36:57.485Z,97324.94
2022-07-29T12:39:27.255Z,97334.00
2022-07-29T12:42:03.317Z,97329.75
2022-07-29T12:44:52.418Z,97333.44
2022-07-29T12:47:20.528Z,97331.09
2022-07-29T12:49:48.763Z,97324.03
2022-07-29T12:52:28.057Z,97325.59
2022-07-29T12:54:54.834Z,97319.34
2022-07-29T12:57:22.007Z,97324.41
2022-07-29T13:00:11.548Z,97316.25
2022-07-29T13:02:39.834Z,97310.31
2022-07-29T13:05:09.240Z,97311.84
2022-07-29T13:07:55.642Z,97315.06
2022-07-29T13:10:25.009Z,97309.88
2022-07-29T13:13:13.723Z,97316.31
2022-07-29T13:15:44.509Z,97316.06
2022-07-29T13:18:33.389Z,97333.66
2022-07-29T13:21:14.101Z,97348.41
2022-07-29T13:23:41.643Z,97357.19
2022-07-29T13:26:12.669Z,97372.19
2022-07-29T13:28:39.540Z,97374.44
2022-07-29T13:31:06.551Z,97365.97
2022-07-29T13:33:33.407Z,97376.22
2022-07-29T13:36:00.150Z,97376.09
2022-07-29T13:38:31.271Z,97372.06
2022-07-29T13:40:58.841Z,97366.03
2022-07-29T13:43:25.646Z,97372.50
2022-07-29T13:45:52.928Z,97380.97
2022-07-29T13:48:19.761Z,97388.75
2022-07-29T13:50:47.517Z,97372.81
2022-07-29T13:53:17.709Z,97370.28
2022-07-29T13:55:45.112Z,97376.75
2022-07-29T13:58:11.937Z,97379.88
2022-07-29T14:00:38.753Z,97371.72
2022-07-29T14:03:07.223Z,97364.00
2022-07-29T14:05:34.191Z,97368.31
2022-07-29T14:08:00.964Z,97360.16
2022-07-29T14:10:27.970Z,97349.97
2022-07-29T14:12:54.750Z,97346.94
2022-07-29T14:15:21.752Z,97353.28
2022-07-29T14:17:48.518Z,97359.81
2022-07-29T14:20:16.524Z,97358.97
2022-07-29T14:22:45.016Z,97354.03
2022-07-29T14:25:15.028Z,97366.06
2022-07-29T14:27:44.227Z,97361.69
2022-07-29T14:30:11.894Z,97371.03
2022-07-29T14:32:38.672Z,97352.16
2022-07-29T14:35:06.837Z,97348.78
2022-07-29T14:37:37.679Z,97350.16
2022-07-29T14:40:08.309Z,97346.81
2022-07-29T14:42:35.371Z,97349.41
2022-07-29T14:45:02.203Z,97359.47
2022-07-29T14:47:29.006Z,97369.84
2022-07-29T14:49:55.784Z,97374.34
2022-07-29T14:52:22.571Z,97380.84
2022-07-29T14:54:49.495Z,97385.94
2022-07-29T14:57:16.275Z,97390.84
2022-07-29T14:59:43.373Z,97383.09
2022-07-29T15:02:10.285Z,97387.59
2022-07-29T15:04:37.065Z,97391.50
2022-07-29T15:07:04.240Z,97385.00
2022-07-29T15:09:31.321Z,97406.34
2022-07-29T15:11:58.448Z,97401.47
2022-07-29T15:14:25.338Z,97397.75
2022-07-29T15:16:52.914Z,97402.66
2022-07-29T15:19:20.029Z,97399.72
2022-07-29T15:21:48.813Z,97390.03
2022-07-29T15:24:20.040Z,97390.28
2022-07-29T15:26:47.770Z,97389.56
2022-07-29T15:29:15.730Z,97396.25
2022-07-29T15:31:42.815Z,97399.47
2022-07-29T15:34:09.934Z,97393.09
2022-07-29T15:36:53.330Z,97402.47
2022-07-29T15:39:21.865Z,97401.25
2022-07-29T15:41:49.828Z,97415.91
2022-07-29T15:44:16.629Z,97415.53
2022-07-29T15:47:02.513Z,97419.66
2022-07-29T15:49:47.497Z,97444.69
2022-07-29T15:52:24.985Z,97436.47
2022-07-29T15:54:52.396Z,97436.63
2022-07-29T15:57:19.274Z,97430.41
2022-07-29T15:59:46.049Z,97437.66
2022-07-29T16:02:12.874Z,97430.94
2022-07-29T16:04:39.813Z,97435.25
2022-07-29T16:07:07.477Z,97439.34
2022-07-29T16:09:34.439Z,97453.81
2022-07-29T16:12:01.182Z,97461.75
2022-07-29T16:14:29.099Z,97468.88
2022-07-29T16:16:56.862Z,97472.75
2022-07-29T16:19:24.111Z,97469.66
2022-07-29T16:21:50.905Z,97472.09
2022-07-29T16:24:18.138Z,97468.59
2022-07-29T16:26:44.935Z,97475.53
2022-07-29T16:29:11.750Z,97485.28
2022-07-29T16:31:38.737Z,97490.56
2022-07-29T16:34:05.721Z,97490.91
2022-07-29T16:36:32.530Z,97495.13
2022-07-29T16:38:59.643Z,97503.63
2022-07-29T16:41:26.521Z,97513.59
2022-07-29T16:43:53.286Z,97513.53
2022-07-29T16:46:21.345Z,97509.84
2022-07-29T16:48:48.695Z,97512.44
2022-07-29T16:51:16.066Z,97520.50
2022-07-29T16:53:42.866Z,97534.91
2022-07-29T16:56:12.951Z,97536.84
2022-07-29T16:58:43.814Z,97544.38
2022-07-29T17:01:11.896Z,97545.13
2022-07-29T17:04:00.433Z,97546.09
2022-07-29T17:06:29.415Z,97544.38
2022-07-29T17:09:14.769Z,97546.97
2022-07-29T17:11:55.122Z,97535.13
2022-07-29T17:14:25.185Z,97549.56
2022-07-29T17:17:00.505Z,97548.69
2022-07-29T17:19:35.300Z,97550.44
2022-07-29T17:22:11.719Z,97542.59
2022-07-29T17:24:43.173Z,97543.53
2022-07-29T17:27:10.733Z,97546.72
2022-07-29T17:29:39.369Z,97538.53
2022-07-29T17:32:07.945Z,97541.28
2022-07-29T17:34:41.117Z,97546.06
2022-07-29T17:37:10.607Z,97544.53
2022-07-29T17:39:41.814Z,97550.09
2022-07-29T17:42:10.969Z,97555.69
2022-07-29T17:44:39.062Z,97559.88
2022-07-29T17:47:09.962Z,97563.25
2022-07-29T17:49:43.715Z,97565.41
2022-07-29T17:52:11.396Z,97554.22
2022-07-29T17:54:38.163Z,97566.41
2022-07-29T17:57:04.919Z,97563.78
2022-07-29T17:59:31.709Z,97567.81
2022-07-29T18:01:58.547Z,97556.59
2022-07-29T18:04:25.383Z,97563.19
2022-07-29T18:06:52.198Z,97566.56
2022-07-29T18:09:18.965Z,97569.41
2022-07-29T18:11:46.190Z,97566.13
2022-07-29T18:14:13.449Z,97564.31
2022-07-29T18:16:40.632Z,97561.03
2022-07-29T18:19:07.585Z,97563.00
2022-07-29T18:21:43.682Z,97578.41
2022-07-29T18:24:23.051Z,97586.06
2022-07-29T18:26:49.838Z,97585.63
2022-07-29T18:29:16.631Z,97595.50
2022-07-29T18:31:43.436Z,97596.41
2022-07-29T18:34:10.268Z,97596.31
2022-07-29T18:36:37.030Z,97588.75
2022-07-29T18:39:03.886Z,97588.09
2022-07-29T18:41:30.618Z,97582.19
2022-07-29T18:43:57.362Z,97577.91
2022-07-29T18:46:25.470Z,97586.66
2022-07-29T18:48:52.606Z,97582.72
2022-07-29T18:51:19.609Z,97585.34
2022-07-29T18:53:46.730Z,97587.97
2022-07-29T18:56:13.845Z,97583.53
2022-07-29T18:58:40.587Z,97604.00
2022-07-29T19:01:07.368Z,97600.91
2022-07-29T19:03:34.487Z,97594.16
2022-07-29T19:06:01.316Z,97598.63
2022-07-29T19:08:28.120Z,97592.22
2022-07-29T19:10:54.875Z,97588.94
2022-07-29T19:13:21.659Z,97601.13
2022-07-29T19:15:48.529Z,97600.50
2022-07-29T19:18:15.324Z,97599.22
2022-07-29T19:20:42.270Z,97611.09
2022-07-29T19:23:09.275Z,97620.03
2022-07-29T19:25:37.311Z,97623.66
2022-07-29T19:28:20.324Z,97620.34
2022-07-29T19:30:47.205Z,97630.25
2022-07-29T19:33:17.297Z,97634.91
2022-07-29T19:35:45.625Z,97641.19
2022-07-29T19:38:13.115Z,97644.81
2022-07-29T19:40:40.079Z,97648.59
2022-07-29T19:43:50.965Z,97659.50
2022-07-29T19:45:54.657Z,97664.97
2022-07-29T19:48:21.486Z,97663.50
2022-07-29T19:50:48.354Z,97672.59
2022-07-29T19:53:17.548Z,97670.94
2022-07-29T19:55:44.322Z,97679.69
2022-07-29T19:58:11.206Z,97669.94
2022-07-29T20:00:38.020Z,97688.91
2022-07-29T20:03:07.049Z,97694.38
2022-07-29T20:05:33.978Z,97697.34
2022-07-29T20:08:00.850Z,97705.91
2022-07-29T20:10:28.363Z,97709.19
2022-07-29T20:12:55.462Z,97709.03
2022-07-29T20:15:22.516Z,97704.41
2022-07-29T20:17:51.814Z,97702.59
2022-07-29T20:20:22.978Z,97700.78
2022-07-29T20:22:49.785Z,97694.03
2022-07-29T20:25:16.647Z,97693.69
2022-07-29T20:27:43.446Z,97691.06
2022-07-29T20:30:13.325Z,97687.59
2022-07-29T20:32:41.442Z,97693.69
2022-07-29T20:35:09.918Z,97687.91
2022-07-29T20:37:52.425Z,97702.28
2022-07-29T20:40:25.180Z,97700.00
2022-07-29T20:42:52.679Z,97708.91
2022-07-29T20:45:20.000Z,97706.44
2022-07-29T20:47:46.949Z,97708.25
2022-07-29T20:50:13.787Z,97707.44
2022-07-29T20:52:41.306Z,97711.25
2022-07-29T20:55:09.053Z,97705.28
2022-07-29T20:57:39.215Z,97703.00
2022-07-29T21:00:08.045Z,97699.38
2022-07-29T21:02:36.586Z,97695.09
2022-07-29T21:05:03.743Z,97702.84
2022-07-29T21:07:30.592Z,97702.34
2022-07-29T21:09:57.499Z,97702.34
2022-07-29T21:12:24.307Z,97703.66
2022-07-29T21:14:51.965Z,97707.09
2022-07-29T21:17:21.359Z,97705.63
2022-07-29T21:19:55.111Z,97713.72
2022-07-29T21:22:22.175Z,97714.06
2022-07-29T21:24:49.641Z,97705.53
2022-07-29T21:27:35.621Z,97701.72
2022-07-29T21:30:09.865Z,97714.91
2022-07-29T21:32:36.796Z,97709.16
2022-07-29T21:35:15.154Z,97701.72
2022-07-29T21:37:51.296Z,97689.41
2022-07-29T21:40:18.123Z,97692.56
2022-07-29T21:42:44.951Z,97687.28
2022-07-29T21:45:15.628Z,97699.47
2022-07-29T21:47:42.386Z,97693.38
2022-07-29T21:50:09.576Z,97680.38
2022-07-29T21:52:36.589Z,97674.63
2022-07-29T21:55:04.789Z,97671.00
2022-07-29T21:57:31.756Z,97666.53
2022-07-29T22:00:02.742Z,97663.91
2022-07-29T22:02:30.007Z,97670.00
2022-07-29T22:04:56.747Z,97656.63
2022-07-29T22:07:23.502Z,97649.56
2022-07-29T22:09:50.280Z,97651.38
2022-07-29T22:12:17.053Z,97652.34
2022-07-29T22:14:43.857Z,97664.91
2022-07-29T22:17:10.904Z,97651.06
2022-07-29T22:19:37.978Z,97653.06
2022-07-29T22:22:04.746Z,97647.97
2022-07-29T22:24:31.514Z,97660.63
2022-07-29T22:26:58.701Z,97666.91
2022-07-29T22:29:27.118Z,97662.81
2022-07-29T22:31:53.999Z,97667.59
2022-07-29T22:34:20.801Z,97662.31
2022-07-29T22:36:47.638Z,97658.34
2022-07-29T22:39:15.591Z,97656.03
2022-07-29T22:41:43.035Z,97656.22
2022-07-29T22:44:09.898Z,97668.28
2022-07-29T22:46:36.839Z,97666.75
2022-07-29T22:49:05.161Z,97672.22
2022-07-29T22:51:32.987Z,97675.66
2022-07-29T22:53:59.798Z,97669.56
2022-07-29T22:56:26.612Z,97663.66
2022-07-29T22:58:55.339Z,97658.09
2022-07-29T23:01:37.921Z,97660.06
2022-07-29T23:04:06.236Z,97662.88
2022-07-29T23:06:33.984Z,97664.19
2022-07-29T23:09:00.741Z,97672.25
2022-07-29T23:11:27.676Z,97670.63
2022-07-29T23:13:54.602Z,97675.88
2022-07-29T23:16:26.255Z,97669.97
2022-07-29T23:18:54.565Z,97661.59
2022-07-29T23:21:21.582Z,97663.88
2022-07-29T23:23:48.985Z,97652.69
2022-07-29T23:26:16.852Z,97652.22
2022-07-29T23:28:45.263Z,97644.13
2022-07-29T23:31:13.429Z,97643.31
2022-07-29T23:33:41.502Z,97632.97
2022-07-29T23:36:08.547Z,97640.38
2022-07-29T23:38:35.359Z,97638.56
2022-07-29T23:41:03.540Z,97634.47
2022-07-29T23:43:30.328Z,97633.81
2022-07-29T23:45:58.072Z,97631.81
2022-07-29T23:48:25.105Z,97627.53
2022-07-29T23:50:51.858Z,97633.81
2022-07-29T23:53:18.674Z,97642.00
2022-07-29T23:55:45.451Z,97641.34
2022-07-29T23:58:12.233Z,97642.34
